Time;durP1;ratioP1;P1;durP2;ratioP2;P2;SDS_P1;SDS_P2;PMS_P1;PMS_P2;Temp;Humidity;BMP_temperature;BMP_pressure;BME280_temperature;BME280_humidity;BME280_pressure;Samples;Min_cycle;Max_cycle;Signal;HPM_P1;HPM_P2
2021/04/13 00:01:15;;;;;;;4.63;4.20;;;;;;;3.46;81.33;97413.81;5056684;28;20209;-68
2021/04/13 00:03:49;;;;;;;4.77;4.37;;;;;;;3.41;82.08;97410.84;5056329;28;20181;-68
2021/04/13 00:06:21;;;;;;;4.90;4.40;;;;;;;3.31;81.99;97413.56;5056487;28;20900;-72
2021/04/13 00:08:50;;;;;;;4.17;3.77;;;;;;;3.24;82.83;97409.16;5055767;28;20442;-73
2021/04/13 00:11:18;;;;;;;6.17;4.77;;;;;;;3.30;82.38;97411.13;5056100;28;20512;-68
2021/04/13 00:13:43;;;;;;;5.70;4.43;;;;;;;3.51;81.51;97409.78;5038736;28;20425;-73
2021/04/13 00:16:27;;;;;;;4.50;4.17;;;;;;;3.46;81.64;97411.22;5056492;28;20408;-68
2021/04/13 00:18:54;;;;;;;4.73;4.23;;;;;;;3.24;82.70;97409.97;5055557;28;20205;-72
2021/04/13 00:21:32;;;;;;;4.90;4.27;;;;;;;3.32;82.68;97406.56;5055975;28;20958;-68
2021/04/13 00:24:01;;;;;;;4.90;4.50;;;;;;;3.14;84.13;97406.66;5055472;28;20430;-72
2021/04/13 00:26:30;;;;;;;4.57;4.27;;;;;;;3.12;83.29;97411.19;5055754;28;20418;-67
2021/04/13 00:28:58;;;;;;;5.27;4.77;;;;;;;3.18;82.81;97402.78;5055581;28;20489;-74
2021/04/13 00:31:41;;;;;;;5.00;4.50;;;;;;;3.17;82.93;97406.31;5056502;28;20828;-73
2021/04/13 00:34:27;;;;;;;4.83;4.40;;;;;;;3.05;83.75;97402.38;5056146;28;20426;-67
2021/04/13 00:36:55;;;;;;;5.67;4.53;;;;;;;2.99;83.80;97408.16;5055474;28;20422;-72
2021/04/13 00:39:25;;;;;;;4.60;4.20;;;;;;;3.05;83.72;97395.41;5056034;28;20435;-67
2021/04/13 00:41:55;;;;;;;4.20;3.80;;;;;;;2.91;84.61;97403.75;5055274;28;20429;-68
2021/04/13 00:44:22;;;;;;;4.73;4.33;;;;;;;3.14;84.13;97410.06;5056242;28;20850;-73
2021/04/13 00:46:56;;;;;;;5.23;4.73;;;;;;;3.32;83.34;97411.75;5034440;28;20792;-69
2021/04/13 00:49:25;;;;;;;5.40;5.00;;;;;;;3.51;82.38;97408.94;5035901;28;20432;-73
2021/04/13 00:51:58;;;;;;;4.40;4.10;;;;;;;3.71;81.53;97408.56;5054890;28;20431;-67
2021/04/13 00:54:42;;;;;;;5.73;4.80;;;;;;;3.77;80.41;97407.09;5055525;28;20433;-67
2021/04/13 00:57:22;;;;;;;4.70;4.40;;;;;;;3.38;82.08;97411.16;5055112;28;20844;-69
2021/04/13 00:59:50;;;;;;;4.70;4.30;;;;;;;3.18;83.73;97413.16;5055272;28;20457;-68
2021/04/13 01:02:22;;;;;;;5.40;4.90;;;;;;;3.29;83.09;97420.69;5055596;28;20420;-67
2021/04/13 01:05:02;;;;;;;6.40;4.90;;;;;;;3.30;82.65;97416.31;5037196;28;20423;-67
2021/04/13 01:07:48;;;;;;;5.07;4.57;;;;;;;3.07;83.47;97421.22;5055511;28;20396;-68
2021/04/13 01:10:18;;;;;;;5.20;4.70;;;;;;;3.09;84.34;97416.69;5055027;28;20448;-73
2021/04/13 01:13:02;;;;;;;5.50;4.57;;;;;;;3.11;84.27;97418.16;5055187;28;20511;-73
2021/04/13 01:15:27;;;;;;;4.50;4.10;;;;;;;3.05;84.52;97421.38;5055324;28;20426;-74
2021/04/13 01:17:53;;;;;;;5.10;4.60;;;;;;;2.87;85.67;97420.59;5054417;28;20446;-68
2021/04/13 01:20:34;;;;;;;5.13;4.80;;;;;;;2.93;86.16;97422.59;5054403;28;20669;-68
2021/04/13 01:23:05;;;;;;;4.43;4.07;;;;;;;3.32;85.02;97412.59;5055569;28;20169;-73
2021/04/13 01:25:38;;;;;;;5.80;4.60;;;;;;;3.46;83.77;97414.59;5054925;28;20968;-73
2021/04/13 01:28:07;;;;;;;4.80;4.30;;;;;;;3.50;82.62;97412.50;5054862;28;20809;-72
2021/04/13 01:30:42;;;;;;;8.13;5.20;;;;;;;3.35;82.63;97416.66;5055107;28;20404;-72
2021/04/13 01:33:22;;;;;;;4.83;4.43;;;;;;;3.32;83.15;97416.97;5054590;28;20919;-73
2021/04/13 01:35:56;;;;;;;5.20;4.80;;;;;;;3.42;82.96;97404.69;5033563;28;20416;-68
2021/04/13 01:38:33;;;;;;;6.43;5.83;;;;;;;3.50;82.53;97410.72;5050993;28;20461;-67
2021/04/13 01:43:32;;;;;;;5.70;5.10;;;;;;;3.86;81.04;97400.97;5054966;28;20424;-68
2021/04/13 01:45:59;;;;;;;5.23;4.83;;;;;;;3.85;80.76;97401.94;5054814;28;20420;-67
2021/04/13 01:48:25;;;;;;;5.13;4.63;;;;;;;3.90;80.29;97405.69;5054384;28;20534;-68
2021/04/13 01:51:02;;;;;;;5.47;4.90;;;;;;;3.87;80.20;97408.63;5054890;28;20405;-69
2021/04/13 01:53:33;;;;;;;5.07;4.63;;;;;;;4.06;79.74;97402.31;5037204;28;20920;-68
2021/04/13 01:56:03;;;;;;;4.97;4.50;;;;;;;4.11;79.23;97402.66;5054545;28;20397;-72
2021/04/13 01:58:38;;;;;;;5.00;4.60;;;;;;;4.11;79.50;97406.06;5053551;28;20462;-72
2021/04/13 02:01:30;;;;;;;5.43;5.03;;;;;;;4.19;78.21;97408.69;5054426;28;20912;-68
2021/04/13 02:04:03;;;;;;;5.47;5.00;;;;;;;4.03;78.57;97410.44;5054254;28;20961;-72
2021/04/13 02:06:36;;;;;;;5.73;5.33;;;;;;;4.07;79.38;97414.34;5054140;28;20421;-67
2021/04/13 02:09:37;;;;;;;4.50;4.10;;;;;;;4.06;78.46;97417.91;5053983;28;20433;-72
2021/04/13 02:12:12;;;;;;;4.87;4.47;;;;;;;4.07;77.39;97417.78;5050109;28;20419;-72
2021/04/13 02:14:52;;;;;;;6.07;5.57;;;;;;;4.08;77.40;97414.19;5054628;28;20774;-68
2021/04/13 02:17:32;;;;;;;9.47;4.90;;;;;;;3.93;78.61;97410.56;5054056;28;20959;-67
2021/04/13 02:19:58;;;;;;;6.07;5.43;;;;;;;3.87;78.44;97424.22;5016540;28;20946;-67
2021/04/13 02:22:25;;;;;;;5.00;4.60;;;;;;;3.83;78.59;97420.28;5034418;28;20413;-73
2021/04/13 02:24:53;;;;;;;5.70;5.10;;;;;;;3.84;78.30;97410.72;5034404;28;20765;-68
2021/04/13 02:27:23;;;;;;;5.60;4.60;;;;;;;3.90;77.95;97416.09;5043901;28;20947;-72
2021/04/13 02:30:14;;;;;;;5.83;5.20;;;;;;;4.00;77.68;97419.34;5053675;28;20448;-68
2021/04/13 02:32:46;;;;;;;5.87;5.37;;;;;;;3.81;78.29;97414.44;5036296;28;20416;-68
2021/04/13 02:35:20;;;;;;;6.17;5.57;;;;;;;3.59;79.58;97429.75;5053852;28;20427;-68
2021/04/13 02:37:48;;;;;;;6.50;5.27;;;;;;;3.25;80.80;97429.75;5053781;28;20445;-72
2021/04/13 02:40:29;;;;;;;6.30;5.70;;;;;;;2.99;81.40;97432.34;5053437;28;20452;-72
2021/04/13 02:43:00;;;;;;;5.40;5.00;;;;;;;2.86;82.31;97441.50;5054005;28;20407;-73
2021/04/13 02:45:28;;;;;;;5.83;5.23;;;;;;;2.72;83.54;97440.25;5053405;28;20430;-73
2021/04/13 02:48:17;;;;;;;6.00;4.87;;;;;;;2.62;84.70;97443.91;5053251;28;20469;-68
2021/04/13 02:50:46;;;;;;;5.53;5.10;;;;;;;2.66;84.15;97437.47;5053687;28;20532;-67
2021/04/13 02:53:15;;;;;;;5.67;4.87;;;;;;;2.46;83.66;97439.41;5053777;28;20769;-67
2021/04/13 02:55:50;;;;;;;5.57;5.17;;;;;;;2.53;84.47;97435.25;5053316;28;20436;-67
2021/04/13 02:58:17;;;;;;;5.50;5.00;;;;;;;2.40;85.53;97433.97;5052526;28;20511;-72
2021/04/13 03:00:45;;;;;;;5.70;5.10;;;;;;;2.49;83.95;97438.28;5053502;28;20417;-67
2021/04/13 03:03:18;;;;;;;6.53;5.30;;;;;;;2.35;83.93;97439.63;5053269;28;20798;-67
2021/04/13 03:05:49;;;;;;;5.87;5.30;;;;;;;2.21;84.30;97445.28;5053503;28;20445;-73
2021/04/13 03:08:15;;;;;;;5.87;4.27;;;;;;;2.13;85.06;97445.22;5053130;28;20401;-68
2021/04/13 03:10:57;;;;;;;5.00;4.60;;;;;;;1.88;87.24;97444.13;5053514;28;20410;-68
2021/04/13 03:13:32;;;;;;;6.17;4.63;;;;;;;2.14;87.07;97444.25;5053043;28;20258;-73
2021/04/13 03:15:59;;;;;;;5.57;5.07;;;;;;;2.21;85.41;97447.09;5053432;28;20497;-67
2021/04/13 03:18:38;;;;;;;6.53;5.70;;;;;;;2.07;86.30;97443.22;5052409;28;20480;-73
2021/04/13 03:21:10;;;;;;;6.00;5.40;;;;;;;2.05;87.15;97438.19;5053287;28;20426;-67
2021/04/13 03:23:37;;;;;;;6.03;5.50;;;;;;;2.30;87.44;97444.41;5053602;28;20485;-73
2021/04/13 03:26:08;;;;;;;8.30;5.80;;;;;;;2.60;86.57;97441.47;5052762;28;20418;-72
2021/04/13 03:28:40;;;;;;;6.53;5.93;;;;;;;2.83;84.42;97436.59;5053048;28;20996;-67
2021/04/13 03:31:06;;;;;;;6.57;5.87;;;;;;;2.90;84.00;97435.84;5053266;28;20485;-72
2021/04/13 03:33:35;;;;;;;6.77;6.07;;;;;;;3.03;83.79;97427.66;5053231;28;20761;-72
2021/04/13 03:36:22;;;;;;;6.40;5.90;;;;;;;3.13;83.23;97428.41;5053580;28;20495;-72
2021/04/13 03:38:53;;;;;;;6.67;6.13;;;;;;;3.28;81.62;97421.66;5032786;28;20463;-68
2021/04/13 03:41:19;;;;;;;7.73;6.50;;;;;;;3.44;81.53;97432.16;5033353;28;20451;-67
2021/04/13 03:43:49;;;;;;;6.70;6.07;;;;;;;3.54;80.06;97424.22;5040440;28;20440;-72
2021/04/13 03:46:15;;;;;;;7.20;6.53;;;;;;;3.47;80.52;97431.81;5053195;28;20414;-68
2021/04/13 03:48:48;;;;;;;8.27;6.30;;;;;;;3.39;80.37;97436.19;5052317;28;20475;-73
2021/04/13 03:51:21;;;;;;;7.60;6.90;;;;;;;3.23;81.23;97433.47;5034897;28;20920;-73
2021/04/13 03:53:47;;;;;;;6.70;5.53;;;;;;;3.19;81.13;97437.34;5052241;28;20422;-72
2021/04/13 03:56:16;;;;;;;8.80;6.20;;;;;;;3.32;81.44;97433.38;5052585;28;20514;-73
2021/04/13 03:58:50;;;;;;;8.23;6.90;;;;;;;3.36;79.34;97439.88;5052396;28;20287;-72
2021/04/13 04:01:20;;;;;;;6.60;6.00;;;;;;;3.17;79.68;97448.69;5052987;28;20399;-67
2021/04/13 04:04:21;;;;;;;9.23;7.13;;;;;;;2.95;80.69;97446.59;5053004;28;20882;-67
2021/04/13 04:07:04;;;;;;;6.27;5.67;;;;;;;2.71;81.59;97446.41;5035101;28;20455;-72
2021/04/13 04:09:29;;;;;;;7.60;6.80;;;;;;;2.60;82.22;97449.25;5052636;28;20422;-72
2021/04/13 04:11:58;;;;;;;6.30;5.70;;;;;;;2.50;82.43;97452.88;5052847;28;20947;-67
2021/04/13 04:14:26;;;;;;;6.57;5.90;;;;;;;2.32;83.88;97452.06;5034864;28;20710;-67
2021/04/13 04:17:02;;;;;;;6.67;5.97;;;;;;;2.37;83.54;97458.44;5052578;28;20402;-72
2021/04/13 04:19:29;;;;;;;6.20;5.13;;;;;;;2.23;83.77;97456.31;5052595;28;20459;-67
2021/04/13 04:22:14;;;;;;;10.03;6.10;;;;;;;2.08;84.36;97461.19;5052205;28;20442;-72
2021/04/13 04:24:43;;;;;;;6.67;5.50;;;;;;;2.07;84.27;97453.56;5052718;28;20434;-73
2021/04/13 04:27:15;;;;;;;6.27;5.73;;;;;;;1.97;85.41;97458.84;5052105;28;20492;-66
2021/04/13 04:29:47;;;;;;;6.90;5.93;;;;;;;1.97;85.57;97463.19;5052443;28;20425;-67
2021/04/13 04:32:39;;;;;;;7.40;6.63;;;;;;;1.94;85.86;97461.69;5052416;28;20489;-72
2021/04/13 04:35:08;;;;;;;7.10;6.40;;;;;;;2.07;86.26;97461.34;5055538;28;20426;-66
2021/04/13 04:37:38;;;;;;;8.03;6.33;;;;;;;2.15;85.38;97463.22;5055591;28;20463;-73
2021/04/13 04:40:17;;;;;;;7.37;6.50;;;;;;;2.32;85.46;97470.22;5056274;28;20462;-70
2021/04/13 04:42:49;;;;;;;7.23;6.47;;;;;;;2.48;84.84;97467.78;5056410;28;20405;-72
2021/04/13 04:45:20;;;;;;;6.57;5.97;;;;;;;2.36;85.05;97469.75;5056139;28;20465;-72
2021/04/13 04:47:48;;;;;;;6.37;5.77;;;;;;;2.55;84.55;97469.63;5033857;28;20790;-66
2021/04/13 04:50:19;;;;;;;8.90;6.93;;;;;;;2.72;83.55;97468.78;5035993;28;20431;-67
2021/04/13 04:52:45;;;;;;;7.87;7.07;;;;;;;2.84;83.33;97466.78;5054125;28;20431;-73
2021/04/13 04:55:12;;;;;;;7.20;6.50;;;;;;;2.98;81.88;97471.44;5038068;28;20899;-72
2021/04/13 04:57:37;;;;;;;7.47;6.77;;;;;;;3.15;80.77;97475.78;5055417;28;20476;-72
2021/04/13 05:00:05;;;;;;;7.83;7.03;;;;;;;2.81;81.23;97472.25;5034284;28;20539;-73
2021/04/13 05:02:30;;;;;;;6.87;6.27;;;;;;;2.65;82.57;97480.72;5052417;28;20233;-72
2021/04/13 05:04:56;;;;;;;8.20;7.40;;;;;;;2.59;83.64;97483.91;5055861;28;20405;-67
2021/04/13 05:07:21;;;;;;;7.50;6.80;;;;;;;2.62;83.16;97486.22;5055134;28;20209;-67
2021/04/13 05:09:47;;;;;;;7.93;7.23;;;;;;;2.83;82.51;97494.50;5055598;28;20720;-72
2021/04/13 05:12:12;;;;;;;7.30;6.60;;;;;;;2.98;82.07;97493.03;5055782;28;20581;-72
2021/04/13 05:14:37;;;;;;;8.77;7.60;;;;;;;3.17;80.89;97491.22;5036894;28;20719;-66
2021/04/13 05:17:03;;;;;;;8.33;7.23;;;;;;;3.21;80.04;97495.94;5054778;28;20168;-72
2021/04/13 05:19:28;;;;;;;8.43;6.53;;;;;;;2.89;80.60;97501.69;5055349;28;20599;-72
2021/04/13 05:21:54;;;;;;;7.57;6.80;;;;;;;2.74;82.34;97503.19;5055454;28;20169;-72
2021/04/13 05:24:19;;;;;;;7.60;6.90;;;;;;;2.63;82.85;97503.41;5055391;28;20248;-67
2021/04/13 05:26:44;;;;;;;7.67;6.97;;;;;;;2.62;84.27;97516.53;5055360;28;20629;-67
2021/04/13 05:29:10;;;;;;;7.13;6.43;;;;;;;2.90;83.34;97515.47;5054253;28;20187;-67
2021/04/13 05:31:39;;;;;;;7.77;6.93;;;;;;;3.04;81.95;97520.94;5055153;28;20172;-72
2021/04/13 05:34:07;;;;;;;7.20;6.50;;;;;;;3.05;81.90;97519.19;5055325;28;20215;-72
2021/04/13 05:36:33;;;;;;;8.43;6.90;;;;;;;3.20;82.09;97528.06;5055282;28;20411;-67
2021/04/13 05:38:59;;;;;;;7.77;6.97;;;;;;;3.32;80.79;97524.25;5054551;28;20466;-72
2021/04/13 05:41:26;;;;;;;8.80;8.00;;;;;;;3.40;80.36;97524.31;5054764;28;20411;-66
2021/04/13 05:43:51;;;;;;;8.77;6.97;;;;;;;3.59;80.04;97524.09;5054680;28;20177;-68
2021/04/13 05:46:22;;;;;;;9.60;8.07;;;;;;;3.74;79.42;97522.56;5053816;28;20486;-72
2021/04/13 05:48:48;;;;;;;8.20;7.10;;;;;;;3.83;78.76;97524.25;5054423;28;20185;-68
2021/04/13 05:51:13;;;;;;;9.47;7.60;;;;;;;3.94;77.75;97526.56;5054866;28;20778;-67
2021/04/13 05:53:38;;;;;;;8.03;7.33;;;;;;;3.95;77.85;97527.41;5054682;28;20249;-67
2021/04/13 05:56:05;;;;;;;7.53;6.83;;;;;;;4.00;77.17;97527.75;5054625;28;20169;-71
2021/04/13 05:58:38;;;;;;;9.33;7.40;;;;;;;4.08;77.48;97527.75;5052874;28;20232;-71
2021/04/13 06:01:07;;;;;;;9.37;7.83;;;;;;;4.24;77.16;97529.63;5034939;28;20480;-66
2021/04/13 06:03:33;;;;;;;8.20;7.40;;;;;;;4.30;76.20;97537.59;5034861;28;20739;-67
2021/04/13 06:05:59;;;;;;;8.23;7.40;;;;;;;4.31;76.96;97528.03;5034494;28;20406;-72
2021/04/13 06:08:25;;;;;;;8.20;7.37;;;;;;;4.41;76.44;97534.72;5036111;28;20437;-71
2021/04/13 06:10:58;;;;;;;8.23;7.53;;;;;;;4.53;76.62;97524.84;5054491;28;20175;-72
2021/04/13 06:13:25;;;;;;;9.00;8.17;;;;;;;4.53;75.71;97527.44;5054225;28;20181;-67
2021/04/13 06:15:52;;;;;;;9.20;8.30;;;;;;;4.56;76.00;97534.91;5054569;28;20480;-66
2021/04/13 06:18:18;;;;;;;8.90;8.00;;;;;;;4.69;75.25;97533.47;5032188;28;20458;-72
2021/04/13 06:20:44;;;;;;;9.10;8.20;;;;;;;4.73;76.02;97536.59;5034285;28;20405;-67
2021/04/13 06:23:09;;;;;;;11.73;9.50;;;;;;;4.77;75.46;97541.31;5034591;28;20175;-72
2021/04/13 06:25:34;;;;;;;9.00;8.10;;;;;;;4.95;75.10;97546.38;5030974;28;20303;-73
2021/04/13 06:28:00;;;;;;;9.30;8.40;;;;;;;5.06;74.82;97543.44;5053489;28;20530;-72
2021/04/13 06:30:27;;;;;;;8.83;7.97;;;;;;;5.10;73.67;97539.56;5053289;28;20175;-72
2021/04/13 06:32:53;;;;;;;9.00;8.10;;;;;;;5.18;73.30;97547.38;5053506;28;20830;-67
2021/04/13 06:35:20;;;;;;;10.07;9.07;;;;;;;5.31;73.00;97550.28;5053841;28;20409;-68
2021/04/13 06:37:48;;;;;;;10.43;9.53;;;;;;;5.34;72.59;97552.59;5052877;28;20980;-72
2021/04/13 06:40:49;;;;;;;11.63;10.60;;;;;;;5.38;72.98;97546.06;5053829;28;20441;-67
2021/04/13 06:43:33;;;;;;;9.70;8.80;;;;;;;5.35;71.64;97546.38;5029280;28;20417;-67
2021/04/13 06:46:23;;;;;;;10.17;8.97;;;;;;;5.48;72.41;97554.53;5053942;28;20404;-72
2021/04/13 06:49:14;;;;;;;10.77;9.77;;;;;;;5.61;72.41;97549.63;5053317;28;20839;-72
2021/04/13 06:52:05;;;;;;;9.80;8.90;;;;;;;5.43;70.99;97548.19;5035397;28;20410;-71
2021/04/13 06:54:43;;;;;;;10.43;9.43;;;;;;;5.60;71.67;97555.03;5053343;28;20423;-67
2021/04/13 06:58:05;;;;;;;11.40;10.30;;;;;;;5.68;71.47;97549.78;5052617;28;20424;-68
2021/04/13 07:00:45;;;;;;;11.10;9.90;;;;;;;5.98;71.85;97544.69;5012053;28;20412;-72
2021/04/13 07:03:21;;;;;;;11.37;10.27;;;;;;;6.15;71.61;97554.09;5012078;28;20403;-67
2021/04/13 07:05:55;;;;;;;11.50;10.40;;;;;;;5.76;72.01;97555.00;5011505;28;20513;-72
2021/04/13 07:09:02;;;;;;;12.20;10.90;;;;;;;6.10;71.63;97551.19;5011198;28;20522;-67
2021/04/13 07:11:50;;;;;;;11.30;10.20;;;;;;;6.43;69.85;97549.28;4934238;29;20456;-67
2021/04/13 07:14:26;;;;;;;11.70;10.60;;;;;;;6.41;69.78;97553.84;5010570;28;20911;-68
2021/04/13 07:16:58;;;;;;;10.83;9.93;;;;;;;6.67;68.82;97553.53;5011627;28;20409;-72
2021/04/13 07:19:37;;;;;;;11.97;10.87;;;;;;;7.02;67.79;97558.22;5011229;28;21026;-67
2021/04/13 07:22:15;;;;;;;11.70;10.50;;;;;;;7.17;66.32;97554.66;4995654;28;20962;-67
2021/04/13 07:24:54;;;;;;;12.30;11.30;;;;;;;7.17;65.47;97554.66;5011633;28;20410;-71
2021/04/13 07:27:22;;;;;;;11.70;10.67;;;;;;;7.24;65.25;97562.66;5011294;28;20447;-72
2021/04/13 07:29:58;;;;;;;10.87;9.77;;;;;;;7.01;64.10;97561.84;5011500;28;20428;-67
2021/04/13 07:32:24;;;;;;;12.07;10.97;;;;;;;7.14;63.99;97565.47;5051725;28;20421;-73
2021/04/13 07:34:56;;;;;;;11.50;10.40;;;;;;;7.36;63.38;97565.63;5031647;28;20778;-67
2021/04/13 07:37:39;;;;;;;11.33;10.23;;;;;;;7.25;64.20;97564.25;5032447;28;20451;-68
2021/04/13 07:40:14;;;;;;;12.43;11.23;;;;;;;7.56;63.48;97569.41;5032945;28;20431;-67
2021/04/13 07:42:47;;;;;;;13.00;11.80;;;;;;;7.69;62.87;97570.44;5033233;28;20407;-67
2021/04/13 07:45:24;;;;;;;12.93;11.73;;;;;;;7.07;65.60;97564.56;5036303;28;20414;-67
2021/04/13 07:48:09;;;;;;;11.47;10.47;;;;;;;7.53;63.97;97562.75;5051758;28;20446;-71
2021/04/13 07:50:37;;;;;;;11.60;10.60;;;;;;;7.70;61.96;97558.97;5033269;28;20462;-68
2021/04/13 07:53:15;;;;;;;12.93;11.73;;;;;;;7.73;61.84;97563.88;5033306;28;20777;-73
2021/04/13 07:56:02;;;;;;;12.47;11.33;;;;;;;7.48;62.49;97567.69;5043287;28;20423;-73
2021/04/13 07:58:47;;;;;;;12.60;11.47;;;;;;;7.47;63.60;97567.84;5052348;28;20791;-73
2021/04/13 08:01:13;;;;;;;12.53;11.40;;;;;;;7.58;63.53;97568.25;5052329;28;20413;-73
2021/04/13 08:03:40;;;;;;;12.10;11.00;;;;;;;7.69;63.97;97578.28;5052649;28;20423;-66
2021/04/13 08:06:28;;;;;;;12.13;11.10;;;;;;;7.53;64.67;97575.81;5052732;28;20417;-66
2021/04/13 08:09:09;;;;;;;14.07;12.73;;;;;;;7.75;65.17;97582.00;5038786;28;20434;-67
2021/04/13 08:11:35;;;;;;;14.10;12.80;;;;;;;7.72;65.75;97575.31;5056758;28;20396;-73
2021/04/13 08:14:18;;;;;;;12.67;11.37;;;;;;;7.89;65.13;97584.63;5056707;28;20820;-66
2021/04/13 08:16:44;;;;;;;13.50;12.27;;;;;;;7.92;65.46;97586.88;5034648;28;20648;-68
2021/04/13 08:19:33;;;;;;;11.60;10.60;;;;;;;7.86;65.00;97589.41;5035834;28;20489;-73
2021/04/13 08:22:19;;;;;;;12.30;11.10;;;;;;;7.69;65.89;97586.13;5037103;28;20764;-66
2021/04/13 08:24:55;;;;;;;11.17;10.17;;;;;;;7.89;65.32;97578.59;5053595;28;20416;-73
2021/04/13 08:27:41;;;;;;;8.80;8.10;;;;;;;7.79;64.59;97589.28;5034654;28;20447;-68
2021/04/13 08:30:27;;;;;;;9.73;8.83;;;;;;;7.39;66.57;97599.28;5056276;28;20415;-67
2021/04/13 08:33:17;;;;;;;9.13;8.23;;;;;;;7.30;69.02;97596.72;5037986;28;20767;-72
2021/04/13 08:36:11;;;;;;;7.67;6.93;;;;;;;7.27;68.22;97597.09;5056167;28;20408;-73
2021/04/13 08:38:55;;;;;;;6.87;6.27;;;;;;;6.66;71.53;97598.91;5055797;28;20457;-66
2021/04/13 08:42:05;;;;;;;8.33;7.63;;;;;;;6.90;72.04;97594.38;5056485;28;20948;-66
2021/04/13 08:44:37;;;;;;;9.53;8.63;;;;;;;6.94;72.14;97592.22;5055899;28;20414;-72
2021/04/13 08:47:13;;;;;;;11.30;10.30;;;;;;;7.20;69.81;97590.09;5055164;28;20417;-67
2021/04/13 08:49:48;;;;;;;12.80;11.47;;;;;;;7.32;69.27;97591.31;5055831;28;20434;-67
2021/04/13 08:52:29;;;;;;;13.67;12.30;;;;;;;7.27;68.15;97586.63;5055660;28;20414;-69
2021/04/13 08:55:16;;;;;;;14.20;12.80;;;;;;;7.17;69.78;97586.03;5055669;28;20418;-67
2021/04/13 08:57:46;;;;;;;15.17;13.57;;;;;;;7.50;69.99;97586.59;5055667;28;20449;-73
2021/04/13 09:00:20;;;;;;;13.80;12.40;;;;;;;7.62;68.16;97595.66;5052717;28;20511;-66
2021/04/13 09:02:56;;;;;;;13.53;12.27;;;;;;;7.76;66.07;97589.66;5032404;28;20415;-72
2021/04/13 09:05:25;;;;;;;12.30;11.10;;;;;;;7.85;65.17;97591.22;5014646;28;20896;-72
2021/04/13 09:08:06;;;;;;;12.43;11.23;;;;;;;7.82;68.90;97590.75;5031946;28;20460;-68
2021/04/13 09:10:47;;;;;;;12.60;11.40;;;;;;;7.97;66.46;97586.38;5051092;28;20424;-67
2021/04/13 09:13:22;;;;;;;13.20;11.90;;;;;;;7.85;68.08;97585.16;5051585;28;20405;-69
2021/04/13 09:16:02;;;;;;;12.27;11.17;;;;;;;8.09;66.51;97579.69;5051837;28;20429;-67
2021/04/13 09:18:30;;;;;;;13.30;12.00;;;;;;;8.44;63.58;97586.88;5051513;28;20488;-67
2021/04/13 09:21:23;;;;;;;12.17;11.17;;;;;;;8.23;63.55;97584.94;5051649;28;20408;-70
2021/04/13 09:24:09;;;;;;;11.00;9.77;;;;;;;8.05;63.20;97581.03;5044093;28;20525;-65
2021/04/13 09:26:45;;;;;;;10.80;9.80;;;;;;;8.09;65.01;97583.13;5049181;28;20432;-67
2021/04/13 09:29:46;;;;;;;9.27;8.40;;;;;;;8.59;61.47;97571.91;5051190;28;20483;-69
2021/04/13 09:32:24;;;;;;;8.87;8.27;;;;;;;9.19;55.57;97577.66;5039241;28;20468;-70
2021/04/13 09:35:27;;;;;;;10.70;9.70;;;;;;;8.95;55.89;97575.38;5049121;28;20429;-62
2021/04/13 09:38:30;;;;;;;10.27;9.40;;;;;;;8.98;54.53;97574.19;5037861;28;20455;-61
2021/04/13 09:41:18;;;;;;;9.57;8.67;;;;;;;8.96;54.17;97571.78;5051149;28;20411;-60
2021/04/13 09:44:06;;;;;;;10.30;9.40;;;;;;;9.03;54.00;97570.03;5051136;28;20411;-61
2021/04/13 09:46:34;;;;;;;9.53;8.27;;;;;;;9.07;53.67;97573.91;5050593;28;20435;-60
2021/04/13 09:49:08;;;;;;;10.60;9.77;;;;;;;9.01;52.59;97574.63;5049958;28;20438;-60
2021/04/13 09:51:48;;;;;;;10.83;8.97;;;;;;;8.95;52.16;97575.38;5050159;28;20457;-62
2021/04/13 09:54:24;;;;;;;8.57;7.83;;;;;;;8.89;51.42;97570.06;5051124;28;20518;-59
2021/04/13 09:57:12;;;;;;;9.03;8.17;;;;;;;8.70;53.59;97566.22;5051017;28;20424;-64
2021/04/13 10:00:03;;;;;;;9.50;8.60;;;;;;;8.65;54.69;97573.00;5050485;28;20434;-61
2021/04/13 10:02:35;;;;;;;11.17;8.93;;;;;;;8.93;52.14;97566.09;5050734;28;20905;-62
2021/04/13 10:05:12;;;;;;;9.77;8.87;;;;;;;8.89;52.66;97570.88;5050648;28;20945;-62
2021/04/13 10:07:53;;;;;;;10.27;9.27;;;;;;;8.74;51.14;97564.84;5032315;28;20415;-60
2021/04/13 10:10:42;;;;;;;10.33;9.33;;;;;;;8.63;51.40;97562.72;5051694;28;20512;-59
2021/04/13 10:13:41;;;;;;;8.93;8.13;;;;;;;9.00;51.02;97565.16;5050410;28;20573;-60
2021/04/13 10:16:28;;;;;;;9.60;8.70;;;;;;;9.45;48.65;97560.53;5050866;28;20398;-62
2021/04/13 10:19:35;;;;;;;8.87;8.03;;;;;;;9.60;48.34;97556.81;5050258;28;20478;-61
2021/04/13 10:22:22;;;;;;;7.90;7.20;;;;;;;9.60;47.57;97559.44;5013571;28;20928;-61
2021/04/13 10:24:55;;;;;;;8.70;6.83;;;;;;;9.85;45.06;97551.97;5049445;28;20432;-61
2021/04/13 10:27:39;;;;;;;7.83;7.13;;;;;;;9.81;45.42;97556.78;5050299;28;20841;-61
2021/04/13 10:30:46;;;;;;;7.57;6.87;;;;;;;9.96;45.27;97552.28;5051151;28;20452;-61
2021/04/13 10:34:05;;;;;;;8.70;8.00;;;;;;;10.23;44.24;97550.63;5050255;28;20419;-61
2021/04/13 10:36:49;;;;;;;9.67;8.70;;;;;;;9.53;48.33;97548.09;4968644;28;20424;-62
2021/04/13 10:40:02;;;;;;;9.70;8.90;;;;;;;9.45;48.25;97553.47;5043110;28;20465;-61
2021/04/13 10:42:42;;;;;;;9.03;8.27;;;;;;;9.99;46.27;97551.88;5043267;28;20463;-62
2021/04/13 10:45:45;;;;;;;8.33;7.50;;;;;;;10.52;45.90;97552.19;5050187;28;20443;-61
2021/04/13 10:48:32;;;;;;;8.73;7.93;;;;;;;10.53;42.51;97551.16;5049410;28;20413;-61
2021/04/13 10:51:12;;;;;;;6.83;6.33;;;;;;;11.05;42.23;97540.84;5050254;28;20434;-61
2021/04/13 10:54:18;;;;;;;6.97;6.47;;;;;;;11.27;41.10;97529.13;5051320;28;20508;-61
2021/04/13 10:57:08;;;;;;;7.77;7.07;;;;;;;10.81;39.19;97528.25;5053849;28;20410;-61
2021/04/13 10:59:52;;;;;;;6.50;5.90;;;;;;;11.11;38.84;97516.38;5052527;28;20468;-61
2021/04/13 11:02:48;;;;;;;6.20;5.63;;;;;;;11.14;35.69;97529.94;5053310;28;20421;-62
2021/04/13 11:05:32;;;;;;;6.80;6.30;;;;;;;11.11;36.90;97521.63;5053661;28;20433;-61
2021/04/13 11:08:18;;;;;;;6.87;6.23;;;;;;;10.69;43.02;97522.72;5053245;28;20391;-60
2021/04/13 11:11:05;;;;;;;7.70;7.00;;;;;;;10.89;42.18;97520.16;5037156;28;20414;-61
2021/04/13 11:13:52;;;;;;;7.23;6.63;;;;;;;11.16;42.06;97524.50;5053262;28;20398;-62
2021/04/13 11:16:24;;;;;;;7.07;6.10;;;;;;;11.15;39.04;97520.22;5053622;28;20410;-61
2021/04/13 11:19:04;;;;;;;6.50;6.00;;;;;;;11.38;38.46;97529.34;5034838;28;20485;-60
2021/04/13 11:22:04;;;;;;;7.20;5.50;;;;;;;11.21;35.75;97528.13;5052585;28;20424;-61
2021/04/13 11:24:37;;;;;;;5.70;5.20;;;;;;;11.10;35.34;97518.22;5053440;28;20744;-61
2021/04/13 11:27:48;;;;;;;5.97;5.40;;;;;;;11.31;35.67;97518.03;5053191;28;20402;-61
2021/04/13 11:30:50;;;;;;;5.63;5.23;;;;;;;11.44;36.96;97509.31;5053259;28;20786;-59
2021/04/13 11:33:49;;;;;;;5.50;5.10;;;;;;;11.59;33.62;97507.31;5053313;28;20389;-61
2021/04/13 11:36:39;;;;;;;6.80;6.20;;;;;;;11.27;39.14;97506.28;5052241;28;20979;-60
2021/04/13 11:39:27;;;;;;;6.50;5.90;;;;;;;11.52;38.58;97503.88;5052450;28;20834;-60
2021/04/13 11:42:18;;;;;;;7.90;6.27;;;;;;;11.53;40.93;97500.22;5053095;28;20406;-60
2021/04/13 11:45:21;;;;;;;7.07;6.47;;;;;;;12.06;36.13;97498.34;5057405;28;20402;-61
2021/04/13 11:48:02;;;;;;;6.57;6.10;;;;;;;11.34;38.18;97485.25;5056813;28;20443;-60
2021/04/13 11:50:41;;;;;;;5.77;5.37;;;;;;;11.47;37.54;97498.38;5057048;28;20418;-60
2021/04/13 11:53:13;;;;;;;7.23;6.53;;;;;;;11.89;35.20;97495.34;5056732;28;20513;-61
2021/04/13 11:55:45;;;;;;;7.13;6.43;;;;;;;12.35;36.19;97488.13;5057028;28;20402;-60
2021/04/13 11:58:16;;;;;;;6.63;6.13;;;;;;;12.74;35.83;97479.22;5056608;28;20498;-60
2021/04/13 12:00:44;;;;;;;5.70;5.23;;;;;;;12.84;34.47;97476.13;5057071;28;20766;-60
2021/04/13 12:03:24;;;;;;;6.60;6.00;;;;;;;12.82;35.80;97483.44;5056422;28;20941;-61
2021/04/13 12:05:53;;;;;;;6.50;6.00;;;;;;;12.82;36.32;97476.34;5055294;28;20418;-61
2021/04/13 12:08:44;;;;;;;6.43;5.97;;;;;;;12.62;35.51;97488.00;5056087;28;20417;-59
2021/04/13 12:11:13;;;;;;;6.93;6.23;;;;;;;12.60;36.77;97493.50;5049673;28;20448;-60
2021/04/13 12:13:40;;;;;;;6.50;5.93;;;;;;;12.21;37.21;97497.06;5056311;28;20440;-59
2021/04/13 12:16:08;;;;;;;7.33;6.73;;;;;;;12.13;36.73;97507.84;5056736;28;20969;-61
2021/04/13 12:18:36;;;;;;;6.80;6.10;;;;;;;12.02;38.25;97500.59;5055120;28;20469;-61
2021/04/13 12:21:23;;;;;;;6.87;6.37;;;;;;;11.89;38.13;97497.97;5056800;28;20475;-60
2021/04/13 12:24:04;;;;;;;6.33;5.77;;;;;;;11.90;37.64;97498.78;5056222;28;20409;-60